createdAt,value
2019-04-07T00:01:07.055Z,95.20
2019-04-07T00:03:39.309Z,95.30
2019-04-07T00:06:08.372Z,95.00
2019-04-07T00:08:37.703Z,95.00
2019-04-07T00:11:06.836Z,95.30
2019-04-07T00:13:36.451Z,95.20
2019-04-07T00:16:05.548Z,95.10
2019-04-07T00:18:34.486Z,95.10
2019-04-07T00:21:03.985Z,95.30
2019-04-07T00:23:33.559Z,95.60
2019-04-07T00:26:04.353Z,95.70
2019-04-07T00:28:33.369Z,95.80
2019-04-07T00:31:02.521Z,96.40
2019-04-07T00:33:32.209Z,96.70
2019-04-07T00:36:01.472Z,96.10
2019-04-07T00:38:30.543Z,96.10
2019-04-07T00:40:59.522Z,96.10
2019-04-07T00:43:29.238Z,96.00
2019-04-07T00:46:01.331Z,95.90
2019-04-07T00:48:31.013Z,95.80
2019-04-07T00:51:00.299Z,95.90
2019-04-07T00:53:29.983Z,96.00
2019-04-07T00:55:59.438Z,95.80
2019-04-07T00:58:29.015Z,96.20
2019-04-07T01:00:58.809Z,96.20
2019-04-07T01:03:27.860Z,96.00
2019-04-07T01:05:56.727Z,96.30
2019-04-07T01:08:27.389Z,96.10
2019-04-07T01:10:56.951Z,96.30
2019-04-07T01:13:26.266Z,96.10
2019-04-07T01:15:56.007Z,96.20
2019-04-07T01:18:26.802Z,96.00
2019-04-07T01:20:55.728Z,96.40
2019-04-07T01:23:24.689Z,96.60
2019-04-07T01:25:54.158Z,96.50
2019-04-07T01:28:23.426Z,96.50
2019-04-07T01:30:53.337Z,96.80
2019-04-07T01:33:22.377Z,96.70
2019-04-07T01:35:51.328Z,96.80
2019-04-07T01:38:20.464Z,96.70
2019-04-07T01:40:51.125Z,96.80
2019-04-07T01:43:21.745Z,96.60
2019-04-07T01:46:05.233Z,96.60
2019-04-07T01:48:48.132Z,96.30
2019-04-07T01:51:18.657Z,96.40
2019-04-07T01:53:51.979Z,96.50
2019-04-07T01:56:26.277Z,96.60
2019-04-07T01:58:57.108Z,96.90
2019-04-07T02:01:39.458Z,96.70
2019-04-07T02:04:25.904Z,96.50
2019-04-07T02:06:56.512Z,96.50
2019-04-07T02:09:27.143Z,96.60
2019-04-07T02:12:04.631Z,96.40
2019-04-07T02:14:39.291Z,96.40
2019-04-07T02:17:13.114Z,96.50
2019-04-07T02:19:47.149Z,96.30
2019-04-07T02:22:21.032Z,96.50
2019-04-07T02:24:58.625Z,96.80
2019-04-07T02:27:39.515Z,96.70
2019-04-07T02:30:16.168Z,96.70
2019-04-07T02:32:49.995Z,96.70
2019-04-07T02:35:24.632Z,96.80
2019-04-07T02:38:13.291Z,96.80
2019-04-07T02:40:48.771Z,96.70
2019-04-07T02:43:19.674Z,96.90
2019-04-07T02:45:50.678Z,97.30
2019-04-07T02:48:24.496Z,96.80
2019-04-07T02:50:58.751Z,96.60
2019-04-07T02:53:36.923Z,96.70
2019-04-07T02:56:15.195Z,97.30
2019-04-07T02:58:49.788Z,97.20
2019-04-07T03:01:20.443Z,97.00
2019-04-07T03:04:07.381Z,97.20
2019-04-07T03:06:53.120Z,97.00
2019-04-07T03:09:37.723Z,97.40
2019-04-07T03:12:08.296Z,97.00
2019-04-07T03:14:45.653Z,97.20
2019-04-07T03:17:22.050Z,97.20
2019-04-07T03:20:09.925Z,97.40
2019-04-07T03:22:43.902Z,97.20
2019-04-07T03:25:17.190Z,97.50
2019-04-07T03:28:04.708Z,97.40
2019-04-07T03:30:40.278Z,97.10
2019-04-07T03:33:22.667Z,97.30
2019-04-07T03:35:55.385Z,97.10
2019-04-07T03:38:24.812Z,97.20
2019-04-07T03:40:55.485Z,96.80
2019-04-07T03:43:42.794Z,96.40
2019-04-07T03:46:28.567Z,96.60
2019-04-07T03:49:17.067Z,96.60
2019-04-07T03:51:59.877Z,96.60
2019-04-07T03:54:33.623Z,96.60
2019-04-07T03:57:04.786Z,96.90
2019-04-07T03:59:41.060Z,96.50
2019-04-07T04:02:29.899Z,96.50
2019-04-07T04:05:03.511Z,96.50
2019-04-07T04:07:40.327Z,96.60
2019-04-07T04:10:11.152Z,96.40
2019-04-07T04:12:44.436Z,96.40
2019-04-07T04:15:15.188Z,96.40
2019-04-07T04:17:44.100Z,96.30
2019-04-07T04:20:13.336Z,96.10
2019-04-07T04:22:43.108Z,95.90
2019-04-07T04:25:12.625Z,95.80
2019-04-07T04:27:41.992Z,95.90
2019-04-07T04:30:33.997Z,95.70
2019-04-07T04:33:03.961Z,95.50
2019-04-07T04:35:33.058Z,95.40
2019-04-07T04:38:02.176Z,95.60
2019-04-07T04:40:32.289Z,95.50
2019-04-07T04:43:02.695Z,95.20
2019-04-07T04:45:31.769Z,95.20
2019-04-07T04:48:00.651Z,95.20
2019-04-07T04:50:29.960Z,95.00
2019-04-07T04:52:59.797Z,94.80
2019-04-07T04:55:29.737Z,94.50
2019-04-07T04:57:58.982Z,94.70
2019-04-07T05:00:28.567Z,94.40
2019-04-07T05:02:58.167Z,94.40
2019-04-07T05:05:28.004Z,94.40
2019-04-07T05:08:02.714Z,94.40
2019-04-07T05:10:27.634Z,94.20
2019-04-07T05:12:57.206Z,94.20
2019-04-07T05:15:26.263Z,94.20
2019-04-07T05:17:55.194Z,94.40
2019-04-07T05:20:24.082Z,94.30
2019-04-07T05:22:53.446Z,94.30
2019-04-07T05:25:22.607Z,94.20
2019-04-07T05:27:51.664Z,94.20
2019-04-07T05:30:23.521Z,94.10
2019-04-07T05:32:52.568Z,94.00
2019-04-07T05:35:22.445Z,94.20
2019-04-07T05:38:01.795Z,94.40
2019-04-07T05:40:25.641Z,94.50
2019-04-07T05:42:54.594Z,94.40
2019-04-07T05:45:23.866Z,94.70
2019-04-07T05:47:53.475Z,94.60
2019-04-07T05:50:26.782Z,94.80
2019-04-07T05:52:53.988Z,95.20
2019-04-07T05:55:24.327Z,94.90
2019-04-07T05:57:53.428Z,95.10
2019-04-07T06:00:23.379Z,95.20
2019-04-07T06:02:52.789Z,95.30
2019-04-07T06:05:22.224Z,95.30
2019-04-07T06:07:52.637Z,95.30
2019-04-07T06:10:24.324Z,95.00
2019-04-07T06:12:52.987Z,95.10
2019-04-07T06:15:23.189Z,94.80
2019-04-07T06:17:52.259Z,94.90
2019-04-07T06:20:21.220Z,94.80
2019-04-07T06:22:54.665Z,94.80
2019-04-07T06:25:23.691Z,95.20
2019-04-07T06:27:53.232Z,94.70
2019-04-07T06:30:23.344Z,94.40
2019-04-07T06:32:52.806Z,94.20
2019-04-07T06:35:22.450Z,94.00
2019-04-07T06:37:57.653Z,93.90
2019-04-07T06:40:25.569Z,93.70
2019-04-07T06:42:56.813Z,93.70
2019-04-07T06:45:42.222Z,93.60
2019-04-07T06:48:12.156Z,93.50
2019-04-07T06:50:50.791Z,93.50
2019-04-07T06:53:21.882Z,93.30
2019-04-07T06:56:01.327Z,93.60
2019-04-07T06:58:31.056Z,93.40
2019-04-07T07:01:04.635Z,93.30
2019-04-07T07:03:44.116Z,93.20
2019-04-07T07:06:24.129Z,92.40
2019-04-07T07:09:10.582Z,92.80
2019-04-07T07:11:53.101Z,93.00
2019-04-07T07:14:36.711Z,92.50
2019-04-07T07:17:17.005Z,92.70
2019-04-07T07:20:05.575Z,92.20
2019-04-07T07:22:35.908Z,92.10
2019-04-07T07:25:05.668Z,92.40
2019-04-07T07:27:38.771Z,92.00
2019-04-07T07:30:12.047Z,91.80
2019-04-07T07:32:41.142Z,92.00
2019-04-07T07:35:13.307Z,91.60
2019-04-07T07:37:40.712Z,91.60
2019-04-07T07:40:15.441Z,91.50
2019-04-07T07:42:49.006Z,91.10
2019-04-07T07:45:17.486Z,90.60
2019-04-07T07:47:51.224Z,90.30
2019-04-07T07:50:17.883Z,90.10
2019-04-07T07:52:49.219Z,88.80
2019-04-07T07:55:17.607Z,89.30
2019-04-07T07:57:46.975Z,90.10
2019-04-07T08:00:16.979Z,88.80
2019-04-07T08:02:49.133Z,87.70
2019-04-07T08:05:17.163Z,86.60
2019-04-07T08:07:48.995Z,86.10
2019-04-07T08:10:17.047Z,84.70
2019-04-07T08:12:48.663Z,84.40
2019-04-07T08:15:17.064Z,83.90
2019-04-07T08:17:46.353Z,83.40
2019-04-07T08:20:15.359Z,83.60
2019-04-07T08:22:44.981Z,83.30
2019-04-07T08:25:14.218Z,82.50
2019-04-07T08:27:43.976Z,82.70
2019-04-07T08:30:13.869Z,81.90
2019-04-07T08:32:43.240Z,80.90
2019-04-07T08:35:12.247Z,82.80
2019-04-07T08:37:41.575Z,83.10
2019-04-07T08:40:10.910Z,82.90
2019-04-07T08:42:40.028Z,81.50
2019-04-07T08:45:09.415Z,82.50
2019-04-07T08:47:39.115Z,82.50
2019-04-07T08:50:08.801Z,82.20
2019-04-07T08:52:40.715Z,82.30
2019-04-07T08:55:08.209Z,81.60
2019-04-07T08:57:37.335Z,82.30
2019-04-07T09:00:14.958Z,82.20
2019-04-07T09:02:41.593Z,82.70
2019-04-07T09:05:10.598Z,83.30
2019-04-07T09:07:40.060Z,83.00
2019-04-07T09:10:11.471Z,82.00
2019-04-07T09:12:40.779Z,81.40
2019-04-07T09:15:12.825Z,80.50
2019-04-07T09:17:59.071Z,80.60
2019-04-07T09:20:30.248Z,81.30
2019-04-07T09:23:03.005Z,80.60
2019-04-07T09:25:50.153Z,80.20
2019-04-07T09:28:23.743Z,80.20
2019-04-07T09:30:53.619Z,79.50
2019-04-07T09:33:43.259Z,78.70
2019-04-07T09:36:14.199Z,79.00
2019-04-07T09:38:56.975Z,78.70
2019-04-07T09:41:29.977Z,78.80
2019-04-07T09:44:04.039Z,79.40
2019-04-07T09:46:44.616Z,79.10
2019-04-07T09:49:15.586Z,77.60
2019-04-07T09:51:47.754Z,78.70
2019-04-07T09:54:27.224Z,75.90
2019-04-07T09:56:57.828Z,74.00
2019-04-07T09:59:31.825Z,73.30
2019-04-07T10:02:12.589Z,74.10
2019-04-07T10:04:49.943Z,73.70
2019-04-07T10:07:29.586Z,74.00
2019-04-07T10:10:17.153Z,73.60
2019-04-07T10:12:51.225Z,73.40
2019-04-07T10:15:37.477Z,74.60
2019-04-07T10:18:25.188Z,75.10
2019-04-07T10:21:12.268Z,75.20
2019-04-07T10:23:48.698Z,75.10
2019-04-07T10:26:36.086Z,74.80
2019-04-07T10:29:12.964Z,75.20
2019-04-07T10:31:47.387Z,75.60
2019-04-07T10:34:34.163Z,76.10
2019-04-07T10:37:14.479Z,74.10
2019-04-07T10:39:46.147Z,76.20
2019-04-07T10:42:26.177Z,75.00
2019-04-07T10:44:57.219Z,75.40
2019-04-07T10:47:34.682Z,75.80
2019-04-07T10:50:12.194Z,73.70
2019-04-07T10:52:43.679Z,73.80
2019-04-07T10:55:16.869Z,74.20
2019-04-07T10:57:50.584Z,73.30
2019-04-07T11:00:24.148Z,73.20
2019-04-07T11:03:11.001Z,73.70
2019-04-07T11:05:57.135Z,73.20
2019-04-07T11:08:33.868Z,72.50
2019-04-07T11:11:14.968Z,71.60
2019-04-07T11:14:01.844Z,65.80
2019-04-07T11:16:38.714Z,67.20
2019-04-07T11:19:12.957Z,66.70
2019-04-07T11:21:46.747Z,66.00
2019-04-07T11:24:19.763Z,64.20
2019-04-07T11:26:57.056Z,63.80
2019-04-07T11:29:34.507Z,62.80
2019-04-07T11:32:21.081Z,61.60
2019-04-07T11:34:51.600Z,60.50
2019-04-07T11:37:25.103Z,60.70
2019-04-07T11:40:13.382Z,60.70
2019-04-07T11:42:50.764Z,60.00
2019-04-07T11:45:36.522Z,59.10
2019-04-07T11:48:19.163Z,58.70
2019-04-07T11:50:52.742Z,58.40
2019-04-07T11:53:29.468Z,58.10
2019-04-07T11:56:01.457Z,57.90
2019-04-07T11:58:34.644Z,59.60
2019-04-07T12:01:14.422Z,59.20
2019-04-07T12:03:49.309Z,59.10
2019-04-07T12:06:36.466Z,59.00
2019-04-07T12:09:22.197Z,59.10
2019-04-07T12:12:09.384Z,58.90
2019-04-07T12:14:52.130Z,59.10
2019-04-07T12:17:39.581Z,57.90
2019-04-07T12:20:26.870Z,57.30
2019-04-07T12:23:16.273Z,56.80
2019-04-07T12:25:52.677Z,55.20
2019-04-07T12:28:33.411Z,54.80
2019-04-07T12:31:07.552Z,52.90
2019-04-07T12:33:39.347Z,54.10
2019-04-07T12:36:20.491Z,54.60
2019-04-07T12:39:02.993Z,54.30
2019-04-07T12:41:39.011Z,53.50
2019-04-07T12:44:15.895Z,54.00
2019-04-07T12:46:46.511Z,52.40
2019-04-07T12:49:20.861Z,51.90
2019-04-07T12:52:08.517Z,50.70
2019-04-07T12:54:43.674Z,52.50
2019-04-07T12:57:20.409Z,54.00
2019-04-07T12:59:53.983Z,54.60
2019-04-07T13:02:25.698Z,54.90
2019-04-07T13:05:05.068Z,54.80
2019-04-07T13:07:43.536Z,54.70
2019-04-07T13:10:14.320Z,55.50
2019-04-07T13:13:03.723Z,54.90
2019-04-07T13:15:37.748Z,54.10
2019-04-07T13:18:25.412Z,54.10
2019-04-07T13:20:56.161Z,54.00
2019-04-07T13:23:29.780Z,53.30
2019-04-07T13:26:13.130Z,54.00
2019-04-07T13:28:50.026Z,54.50
2019-04-07T13:31:21.258Z,55.50
2019-04-07T13:33:59.748Z,55.80
2019-04-07T13:36:33.315Z,55.00
2019-04-07T13:39:20.303Z,55.10
2019-04-07T13:41:55.682Z,55.00
2019-04-07T13:44:27.177Z,55.50
2019-04-07T13:47:10.631Z,56.40
2019-04-07T13:49:44.729Z,56.60
2019-04-07T13:52:20.789Z,56.60
2019-04-07T13:55:02.172Z,57.50
2019-04-07T13:57:38.150Z,56.80
2019-04-07T14:00:17.114Z,57.20
2019-04-07T14:03:03.237Z,57.40
2019-04-07T14:05:34.281Z,57.60
2019-04-07T14:08:05.958Z,57.40
2019-04-07T14:10:40.462Z,57.10
2019-04-07T14:13:26.764Z,57.30
2019-04-07T14:16:01.449Z,57.40
2019-04-07T14:18:35.629Z,57.50
2019-04-07T14:21:06.529Z,57.40
2019-04-07T14:23:38.291Z,57.60
2019-04-07T14:26:12.790Z,57.40
2019-04-07T14:28:44.119Z,58.10
2019-04-07T14:31:17.898Z,58.30
2019-04-07T14:34:00.771Z,58.50
2019-04-07T14:36:31.577Z,58.10
2019-04-07T14:39:08.513Z,58.40
2019-04-07T14:41:39.324Z,59.10
2019-04-07T14:44:12.965Z,58.40
2019-04-07T14:46:58.661Z,58.70
2019-04-07T14:49:32.066Z,59.10
2019-04-07T14:52:14.552Z,59.00
2019-04-07T14:54:57.122Z,59.10
2019-04-07T14:57:24.446Z,59.50
2019-04-07T15:00:05.251Z,59.30
2019-04-07T15:02:35.354Z,59.40
2019-04-07T15:05:13.772Z,59.10
2019-04-07T15:08:03.338Z,60.70
2019-04-07T15:10:37.308Z,60.80
2019-04-07T15:13:13.844Z,61.10
2019-04-07T15:15:43.193Z,60.60
2019-04-07T15:18:12.765Z,61.10
2019-04-07T15:20:43.044Z,60.60
2019-04-07T15:23:13.225Z,61.00
2019-04-07T15:25:46.018Z,60.50
2019-04-07T15:28:14.221Z,60.70
2019-04-07T15:30:46.026Z,60.90
2019-04-07T15:33:13.878Z,61.80
2019-04-07T15:35:45.890Z,62.90
2019-04-07T15:38:16.480Z,62.40
2019-04-07T15:40:47.419Z,63.20
2019-04-07T15:43:17.019Z,63.10
2019-04-07T15:45:46.954Z,63.80
2019-04-07T15:48:17.054Z,63.40
2019-04-07T15:50:46.188Z,63.00
2019-04-07T15:53:15.654Z,63.70
2019-04-07T15:55:53.495Z,64.00
2019-04-07T15:58:16.969Z,63.70
2019-04-07T16:00:48.615Z,63.70
2019-04-07T16:03:17.651Z,64.20
2019-04-07T16:05:46.708Z,64.60
2019-04-07T16:08:16.111Z,64.70
2019-04-07T16:10:45.397Z,64.40
2019-04-07T16:13:17.412Z,64.70
2019-04-07T16:15:48.360Z,64.80
2019-04-07T16:18:17.501Z,65.50
2019-04-07T16:20:46.524Z,65.60
2019-04-07T16:23:18.345Z,66.10
2019-04-07T16:25:46.351Z,66.40
2019-04-07T16:28:16.170Z,66.00
2019-04-07T16:30:48.639Z,67.00
2019-04-07T16:33:16.352Z,67.30
2019-04-07T16:35:50.846Z,65.30
2019-04-07T16:38:16.364Z,66.80
2019-04-07T16:40:45.542Z,66.70
2019-04-07T16:43:17.353Z,67.30
2019-04-07T16:45:46.285Z,67.70
2019-04-07T16:48:16.203Z,67.00
2019-04-07T16:50:46.236Z,67.60
2019-04-07T16:53:16.267Z,68.00
2019-04-07T16:55:48.951Z,68.10
2019-04-07T16:58:16.101Z,69.00
2019-04-07T17:00:45.340Z,68.80
2019-04-07T17:03:15.267Z,69.00
2019-04-07T17:05:45.139Z,69.30
2019-04-07T17:08:17.736Z,68.70
2019-04-07T17:10:45.412Z,68.50
2019-04-07T17:13:20.143Z,68.50
2019-04-07T17:15:45.101Z,69.40
2019-04-07T17:18:35.570Z,69.30
2019-04-07T17:21:09.432Z,68.90
2019-04-07T17:23:38.636Z,69.70
2019-04-07T17:26:09.424Z,70.80
2019-04-07T17:28:42.246Z,71.00
2019-04-07T17:31:11.608Z,71.00
2019-04-07T17:33:41.477Z,70.40
2019-04-07T17:36:10.609Z,71.00
2019-04-07T17:38:58.715Z,71.50
2019-04-07T17:41:27.692Z,72.10
2019-04-07T17:44:01.006Z,72.50
2019-04-07T17:46:40.715Z,72.20
2019-04-07T17:49:25.314Z,72.40
2019-04-07T17:51:56.400Z,72.70
2019-04-07T17:54:33.222Z,74.50
2019-04-07T17:57:07.007Z,73.80
2019-04-07T17:59:44.862Z,74.00
2019-04-07T18:02:19.005Z,75.30
2019-04-07T18:05:04.731Z,75.40
2019-04-07T18:07:42.857Z,75.50
2019-04-07T18:10:13.559Z,75.90
2019-04-07T18:13:01.102Z,75.60
2019-04-07T18:15:49.926Z,76.70
2019-04-07T18:18:37.737Z,76.10
2019-04-07T18:21:18.960Z,76.30
2019-04-07T18:23:59.411Z,76.10
2019-04-07T18:26:35.448Z,75.90
2019-04-07T18:29:12.486Z,76.00
2019-04-07T18:31:45.587Z,76.40
2019-04-07T18:34:27.367Z,76.20
2019-04-07T18:37:12.875Z,76.60
2019-04-07T18:39:52.331Z,77.30
2019-04-07T18:42:34.930Z,77.40
2019-04-07T18:45:12.176Z,77.80
2019-04-07T18:47:48.256Z,78.40
2019-04-07T18:50:28.722Z,78.20
2019-04-07T18:53:16.732Z,78.60
2019-04-07T18:56:03.434Z,79.00
2019-04-07T18:58:46.426Z,79.10
2019-04-07T19:01:32.005Z,80.40
2019-04-07T19:04:04.539Z,80.90
2019-04-07T19:06:46.406Z,80.90
2019-04-07T19:09:31.304Z,81.20
2019-04-07T19:12:14.151Z,81.00
2019-04-07T19:15:05.637Z,81.30
2019-04-07T19:17:35.007Z,81.70
2019-04-07T19:20:08.982Z,81.70
2019-04-07T19:22:43.309Z,82.80
2019-04-07T19:25:17.286Z,83.00
2019-04-07T19:27:50.646Z,83.50
2019-04-07T19:30:21.294Z,83.50
2019-04-07T19:33:08.996Z,84.20
2019-04-07T19:35:49.865Z,84.00
2019-04-07T19:38:33.672Z,83.80
2019-04-07T19:41:20.780Z,84.50
2019-04-07T19:43:55.237Z,84.90
2019-04-07T19:46:29.144Z,84.70
2019-04-07T19:49:00.172Z,84.40
2019-04-07T19:51:50.717Z,84.80
2019-04-07T19:54:37.600Z,84.90
2019-04-07T19:57:14.186Z,84.80
2019-04-07T19:59:48.526Z,83.70
2019-04-07T20:02:32.632Z,83.80
2019-04-07T20:05:19.523Z,84.00
2019-04-07T20:07:52.602Z,84.30
2019-04-07T20:10:32.164Z,84.30
2019-04-07T20:13:05.543Z,84.30
2019-04-07T20:15:44.981Z,84.40
2019-04-07T20:18:24.435Z,85.00
2019-04-07T20:20:53.573Z,85.00
2019-04-07T20:23:41.470Z,84.80
2019-04-07T20:26:12.168Z,85.00
2019-04-07T20:28:43.904Z,84.70
2019-04-07T20:31:31.376Z,84.20
2019-04-07T20:34:06.044Z,84.70
2019-04-07T20:36:48.745Z,84.40
2019-04-07T20:39:36.560Z,84.60
2019-04-07T20:42:25.697Z,85.00
2019-04-07T20:45:07.065Z,84.90
2019-04-07T20:47:34.552Z,85.40
2019-04-07T20:50:16.427Z,85.50
2019-04-07T20:52:50.399Z,85.50
2019-04-07T20:55:24.296Z,85.20
2019-04-07T20:58:12.299Z,85.30
2019-04-07T21:00:58.376Z,85.70
2019-04-07T21:03:27.953Z,85.30
2019-04-07T21:06:00.066Z,86.30
2019-04-07T21:08:47.593Z,86.20
2019-04-07T21:11:19.298Z,86.20
2019-04-07T21:13:54.384Z,86.50
2019-04-07T21:16:29.825Z,86.20
2019-04-07T21:19:16.698Z,86.30
2019-04-07T21:22:03.481Z,86.70
2019-04-07T21:24:37.051Z,87.20
2019-04-07T21:27:14.330Z,86.90
2019-04-07T21:30:00.311Z,86.70
2019-04-07T21:32:40.313Z,86.60
2019-04-07T21:35:29.193Z,86.60
2019-04-07T21:38:20.830Z,86.90
2019-04-07T21:40:52.602Z,86.70
2019-04-07T21:43:40.334Z,86.60
2019-04-07T21:46:29.015Z,87.00
2019-04-07T21:49:09.742Z,86.70
2019-04-07T21:51:52.633Z,86.50
2019-04-07T21:54:26.950Z,86.90
2019-04-07T21:57:00.436Z,87.10
2019-04-07T21:59:33.804Z,86.90
2019-04-07T22:02:17.343Z,86.80
2019-04-07T22:04:57.146Z,86.80
2019-04-07T22:07:33.129Z,87.20
2019-04-07T22:10:03.163Z,88.10
2019-04-07T22:12:33.902Z,87.60
2019-04-07T22:15:03.157Z,87.60
2019-04-07T22:17:34.349Z,87.40
2019-04-07T22:20:02.843Z,87.50
2019-04-07T22:22:31.747Z,87.50
2019-04-07T22:25:01.225Z,88.10
2019-04-07T22:27:30.562Z,88.00
2019-04-07T22:30:01.058Z,88.70
2019-04-07T22:32:31.055Z,89.60
2019-04-07T22:35:03.773Z,89.90
2019-04-07T22:37:30.713Z,90.30
2019-04-07T22:40:02.062Z,90.30
2019-04-07T22:42:33.136Z,90.30
2019-04-07T22:45:02.158Z,90.70
2019-04-07T22:47:31.617Z,90.40
2019-04-07T22:50:02.523Z,90.50
2019-04-07T22:52:32.002Z,90.80
2019-04-07T22:55:24.949Z,90.70
2019-04-07T22:57:53.833Z,90.80
2019-04-07T23:00:26.989Z,90.60
2019-04-07T23:02:56.041Z,90.70
2019-04-07T23:05:25.639Z,91.20
2019-04-07T23:07:54.662Z,91.00
2019-04-07T23:10:27.342Z,90.90
2019-04-07T23:12:57.135Z,91.00
2019-04-07T23:15:37.458Z,91.10
2019-04-07T23:17:57.619Z,91.30
2019-04-07T23:20:26.907Z,91.10
2019-04-07T23:22:56.613Z,91.20
2019-04-07T23:25:28.263Z,91.40
2019-04-07T23:27:58.416Z,91.10
2019-04-07T23:30:29.019Z,91.20
2019-04-07T23:32:58.084Z,91.10
2019-04-07T23:35:27.410Z,91.30
2019-04-07T23:37:57.320Z,91.20
2019-04-07T23:40:26.296Z,91.20
2019-04-07T23:42:55.180Z,91.20
2019-04-07T23:45:25.247Z,91.20
2019-04-07T23:47:54.635Z,91.40
2019-04-07T23:50:23.725Z,91.50
2019-04-07T23:52:52.633Z,91.90
2019-04-07T23:55:21.887Z,91.70
2019-04-07T23:57:51.978Z,91.70
